sensor_id;sensor_type;location;lat;lon;timestamp;P1;durP1;ratioP1;P2;durP2;ratioP2
36221;SDS011;22266;52.340;4.962;2024-01-15T00:01:59;0.00;;;0.00;;
36221;SDS011;22266;52.340;4.962;2024-01-15T00:04:26;1.00;;;0.00;;
36221;SDS011;22266;52.340;4.962;2024-01-15T00:06:52;2.25;;;0.75;;
36221;SDS011;22266;52.340;4.962;2024-01-15T00:09:19;0.00;;;0.00;;
36221;SDS011;22266;52.340;4.962;2024-01-15T00:11:46;1.00;;;1.00;;
36221;SDS011;22266;52.340;4.962;2024-01-15T00:14:12;1.00;;;0.00;;
36221;SDS011;22266;52.340;4.962;2024-01-15T00:16:40;0.75;;;0.25;;
36221;SDS011;22266;52.340;4.962;2024-01-15T00:19:07;0.00;;;0.00;;
36221;SDS011;22266;52.340;4.962;2024-01-15T00:21:34;2.00;;;0.00;;
36221;SDS011;22266;52.340;4.962;2024-01-15T00:24:01;0.75;;;0.00;;
36221;SDS011;22266;52.340;4.962;2024-01-15T00:26:28;0.25;;;0.00;;
36221;SDS011;22266;52.340;4.962;2024-01-15T00:28:54;1.00;;;0.00;;
36221;SDS011;22266;52.340;4.962;2024-01-15T00:31:21;1.25;;;1.00;;
36221;SDS011;22266;52.340;4.962;2024-01-15T00:33:48;0.00;;;0.00;;
36221;SDS011;22266;52.340;4.962;2024-01-15T00:36:15;5.00;;;0.00;;
36221;SDS011;22266;52.340;4.962;2024-01-15T00:38:46;1.00;;;0.50;;
36221;SDS011;22266;52.340;4.962;2024-01-15T00:41:14;0.00;;;0.00;;
36221;SDS011;22266;52.340;4.962;2024-01-15T00:43:41;4.00;;;1.00;;
36221;SDS011;22266;52.340;4.962;2024-01-15T00:46:08;0.00;;;0.00;;
36221;SDS011;22266;52.340;4.962;2024-01-15T00:48:34;0.00;;;0.00;;
36221;SDS011;22266;52.340;4.962;2024-01-15T00:51:01;4.00;;;0.50;;
36221;SDS011;22266;52.340;4.962;2024-01-15T00:53:28;1.25;;;0.00;;
36221;SDS011;22266;52.340;4.962;2024-01-15T00:55:56;1.50;;;0.75;;
36221;SDS011;22266;52.340;4.962;2024-01-15T00:58:23;1.00;;;1.00;;
36221;SDS011;22266;52.340;4.962;2024-01-15T01:00:49;0.00;;;0.00;;
36221;SDS011;22266;52.340;4.962;2024-01-15T01:03:16;0.00;;;0.00;;
36221;SDS011;22266;52.340;4.962;2024-01-15T01:05:43;0.25;;;0.00;;
36221;SDS011;22266;52.340;4.962;2024-01-15T01:08:11;0.00;;;0.00;;
36221;SDS011;22266;52.340;4.962;2024-01-15T01:10:37;0.00;;;0.00;;
36221;SDS011;22266;52.340;4.962;2024-01-15T01:13:04;0.00;;;0.00;;
36221;SDS011;22266;52.340;4.962;2024-01-15T01:15:30;0.00;;;0.00;;
36221;SDS011;22266;52.340;4.962;2024-01-15T01:17:57;0.75;;;0.00;;
36221;SDS011;22266;52.340;4.962;2024-01-15T01:20:24;0.00;;;0.00;;
36221;SDS011;22266;52.340;4.962;2024-01-15T01:22:50;0.00;;;0.00;;
36221;SDS011;22266;52.340;4.962;2024-01-15T01:25:17;1.00;;;0.00;;
36221;SDS011;22266;52.340;4.962;2024-01-15T01:27:44;1.00;;;0.00;;
36221;SDS011;22266;52.340;4.962;2024-01-15T01:30:10;0.50;;;0.50;;
36221;SDS011;22266;52.340;4.962;2024-01-15T01:32:37;0.50;;;0.00;;
36221;SDS011;22266;52.340;4.962;2024-01-15T01:35:04;0.25;;;0.25;;
36221;SDS011;22266;52.340;4.962;2024-01-15T01:37:31;1.00;;;0.00;;
36221;SDS011;22266;52.340;4.962;2024-01-15T01:39:57;0.50;;;0.50;;
36221;SDS011;22266;52.340;4.962;2024-01-15T01:42:24;0.00;;;0.00;;
36221;SDS011;22266;52.340;4.962;2024-01-15T01:44:50;1.25;;;1.00;;
36221;SDS011;22266;52.340;4.962;2024-01-15T01:47:17;0.00;;;0.00;;
36221;SDS011;22266;52.340;4.962;2024-01-15T01:49:44;0.50;;;0.00;;
36221;SDS011;22266;52.340;4.962;2024-01-15T01:52:12;1.00;;;0.00;;
36221;SDS011;22266;52.340;4.962;2024-01-15T01:54:40;1.00;;;1.00;;
36221;SDS011;22266;52.340;4.962;2024-01-15T01:57:08;0.00;;;0.00;;
36221;SDS011;22266;52.340;4.962;2024-01-15T01:59:34;0.00;;;0.00;;
36221;SDS011;22266;52.340;4.962;2024-01-15T02:02:02;0.00;;;0.00;;
36221;SDS011;22266;52.340;4.962;2024-01-15T02:04:31;2.00;;;0.00;;
36221;SDS011;22266;52.340;4.962;2024-01-15T02:06:59;0.00;;;0.00;;
36221;SDS011;22266;52.340;4.962;2024-01-15T02:09:27;0.00;;;0.00;;
36221;SDS011;22266;52.340;4.962;2024-01-15T02:11:53;0.00;;;0.00;;
36221;SDS011;22266;52.340;4.962;2024-01-15T02:14:20;1.00;;;1.00;;
36221;SDS011;22266;52.340;4.962;2024-01-15T02:16:48;0.00;;;0.00;;
36221;SDS011;22266;52.340;4.962;2024-01-15T02:19:15;1.00;;;0.00;;
36221;SDS011;22266;52.340;4.962;2024-01-15T02:21:43;0.00;;;0.00;;
36221;SDS011;22266;52.340;4.962;2024-01-15T02:24:11;0.00;;;0.00;;
36221;SDS011;22266;52.340;4.962;2024-01-15T02:26:38;0.50;;;0.00;;
36221;SDS011;22266;52.340;4.962;2024-01-15T02:29:05;2.00;;;0.00;;
36221;SDS011;22266;52.340;4.962;2024-01-15T02:31:35;0.00;;;0.00;;
36221;SDS011;22266;52.340;4.962;2024-01-15T02:34:02;1.75;;;0.50;;
36221;SDS011;22266;52.340;4.962;2024-01-15T02:36:29;0.00;;;0.00;;
36221;SDS011;22266;52.340;4.962;2024-01-15T02:38:56;0.00;;;0.00;;
36221;SDS011;22266;52.340;4.962;2024-01-15T02:41:23;0.00;;;0.00;;
36221;SDS011;22266;52.340;4.962;2024-01-15T02:43:49;1.00;;;0.00;;
36221;SDS011;22266;52.340;4.962;2024-01-15T02:46:16;0.00;;;0.00;;
36221;SDS011;22266;52.340;4.962;2024-01-15T02:48:43;0.00;;;0.00;;
36221;SDS011;22266;52.340;4.962;2024-01-15T02:51:10;0.25;;;0.00;;
36221;SDS011;22266;52.340;4.962;2024-01-15T02:53:36;1.00;;;1.00;;
36221;SDS011;22266;52.340;4.962;2024-01-15T02:56:03;0.00;;;0.00;;
36221;SDS011;22266;52.340;4.962;2024-01-15T02:58:30;0.00;;;0.00;;
36221;SDS011;22266;52.340;4.962;2024-01-15T03:00:57;0.00;;;0.00;;
36221;SDS011;22266;52.340;4.962;2024-01-15T03:03:24;0.00;;;0.00;;
36221;SDS011;22266;52.340;4.962;2024-01-15T03:05:51;0.00;;;0.00;;
36221;SDS011;22266;52.340;4.962;2024-01-15T03:08:18;0.00;;;0.00;;
36221;SDS011;22266;52.340;4.962;2024-01-15T03:10:45;0.00;;;0.00;;
36221;SDS011;22266;52.340;4.962;2024-01-15T03:13:11;0.00;;;0.00;;
36221;SDS011;22266;52.340;4.962;2024-01-15T03:15:38;0.00;;;0.00;;
36221;SDS011;22266;52.340;4.962;2024-01-15T03:18:04;0.00;;;0.00;;
36221;SDS011;22266;52.340;4.962;2024-01-15T03:20:32;0.00;;;0.00;;
36221;SDS011;22266;52.340;4.962;2024-01-15T03:22:59;0.00;;;0.00;;
36221;SDS011;22266;52.340;4.962;2024-01-15T03:25:25;0.00;;;0.00;;
36221;SDS011;22266;52.340;4.962;2024-01-15T03:27:52;0.00;;;0.00;;
36221;SDS011;22266;52.340;4.962;2024-01-15T03:30:18;1.00;;;0.00;;
36221;SDS011;22266;52.340;4.962;2024-01-15T03:32:45;0.00;;;0.00;;
36221;SDS011;22266;52.340;4.962;2024-01-15T03:35:13;0.00;;;0.00;;
36221;SDS011;22266;52.340;4.962;2024-01-15T03:37:40;0.00;;;0.00;;
36221;SDS011;22266;52.340;4.962;2024-01-15T03:40:07;0.00;;;0.00;;
36221;SDS011;22266;52.340;4.962;2024-01-15T03:42:34;0.00;;;0.00;;
36221;SDS011;22266;52.340;4.962;2024-01-15T03:45:01;0.00;;;0.00;;
36221;SDS011;22266;52.340;4.962;2024-01-15T03:47:29;1.00;;;1.00;;
36221;SDS011;22266;52.340;4.962;2024-01-15T03:49:55;0.00;;;0.00;;
36221;SDS011;22266;52.340;4.962;2024-01-15T03:52:22;1.00;;;1.00;;
36221;SDS011;22266;52.340;4.962;2024-01-15T03:54:48;0.00;;;0.00;;
36221;SDS011;22266;52.340;4.962;2024-01-15T03:57:15;0.00;;;0.00;;
36221;SDS011;22266;52.340;4.962;2024-01-15T03:59:42;0.00;;;0.00;;
36221;SDS011;22266;52.340;4.962;2024-01-15T04:02:08;0.00;;;0.00;;
36221;SDS011;22266;52.340;4.962;2024-01-15T04:04:35;0.00;;;0.00;;
36221;SDS011;22266;52.340;4.962;2024-01-15T04:07:02;0.00;;;0.00;;
36221;SDS011;22266;52.340;4.962;2024-01-15T04:09:29;0.00;;;0.00;;
36221;SDS011;22266;52.340;4.962;2024-01-15T04:11:55;0.00;;;0.00;;
36221;SDS011;22266;52.340;4.962;2024-01-15T04:14:22;0.00;;;0.00;;
36221;SDS011;22266;52.340;4.962;2024-01-15T04:16:48;0.00;;;0.00;;
36221;SDS011;22266;52.340;4.962;2024-01-15T04:19:15;0.00;;;0.00;;
36221;SDS011;22266;52.340;4.962;2024-01-15T04:21:42;1.25;;;0.00;;
36221;SDS011;22266;52.340;4.962;2024-01-15T04:24:08;0.00;;;0.00;;
36221;SDS011;22266;52.340;4.962;2024-01-15T04:26:35;0.00;;;0.00;;
36221;SDS011;22266;52.340;4.962;2024-01-15T04:29:02;1.50;;;0.00;;
36221;SDS011;22266;52.340;4.962;2024-01-15T04:31:28;0.00;;;0.00;;
36221;SDS011;22266;52.340;4.962;2024-01-15T04:33:55;0.00;;;0.00;;
36221;SDS011;22266;52.340;4.962;2024-01-15T04:36:22;1.00;;;0.00;;
36221;SDS011;22266;52.340;4.962;2024-01-15T04:38:49;0.00;;;0.00;;
36221;SDS011;22266;52.340;4.962;2024-01-15T04:41:15;0.00;;;0.00;;
36221;SDS011;22266;52.340;4.962;2024-01-15T04:43:43;0.00;;;0.00;;
36221;SDS011;22266;52.340;4.962;2024-01-15T04:46:09;0.00;;;0.00;;
36221;SDS011;22266;52.340;4.962;2024-01-15T04:48:36;0.00;;;0.00;;
36221;SDS011;22266;52.340;4.962;2024-01-15T04:51:08;0.00;;;0.00;;
36221;SDS011;22266;52.340;4.962;2024-01-15T04:53:35;2.00;;;0.00;;
36221;SDS011;22266;52.340;4.962;2024-01-15T04:56:02;0.00;;;0.00;;
36221;SDS011;22266;52.340;4.962;2024-01-15T04:58:28;0.00;;;0.00;;
36221;SDS011;22266;52.340;4.962;2024-01-15T05:00:55;0.00;;;0.00;;
36221;SDS011;22266;52.340;4.962;2024-01-15T05:03:22;0.00;;;0.00;;
36221;SDS011;22266;52.340;4.962;2024-01-15T05:05:49;0.00;;;0.00;;
36221;SDS011;22266;52.340;4.962;2024-01-15T05:08:16;0.00;;;0.00;;
36221;SDS011;22266;52.340;4.962;2024-01-15T05:10:42;0.00;;;0.00;;
36221;SDS011;22266;52.340;4.962;2024-01-15T05:13:09;0.00;;;0.00;;
36221;SDS011;22266;52.340;4.962;2024-01-15T05:15:36;0.00;;;0.00;;
36221;SDS011;22266;52.340;4.962;2024-01-15T05:18:02;0.00;;;0.00;;
36221;SDS011;22266;52.340;4.962;2024-01-15T05:20:29;0.00;;;0.00;;
36221;SDS011;22266;52.340;4.962;2024-01-15T05:22:56;1.00;;;0.00;;
36221;SDS011;22266;52.340;4.962;2024-01-15T05:25:22;0.00;;;0.00;;
36221;SDS011;22266;52.340;4.962;2024-01-15T05:27:49;1.00;;;0.00;;
36221;SDS011;22266;52.340;4.962;2024-01-15T05:30:16;0.00;;;0.00;;
36221;SDS011;22266;52.340;4.962;2024-01-15T05:32:43;1.00;;;0.00;;
36221;SDS011;22266;52.340;4.962;2024-01-15T05:35:09;0.00;;;0.00;;
36221;SDS011;22266;52.340;4.962;2024-01-15T05:37:36;0.75;;;0.00;;
36221;SDS011;22266;52.340;4.962;2024-01-15T05:40:03;0.00;;;0.00;;
36221;SDS011;22266;52.340;4.962;2024-01-15T05:42:31;0.00;;;0.00;;
36221;SDS011;22266;52.340;4.962;2024-01-15T05:44:58;1.00;;;0.00;;
36221;SDS011;22266;52.340;4.962;2024-01-15T05:47:26;0.00;;;0.00;;
36221;SDS011;22266;52.340;4.962;2024-01-15T05:49:53;0.00;;;0.00;;
36221;SDS011;22266;52.340;4.962;2024-01-15T05:52:21;0.75;;;0.75;;
36221;SDS011;22266;52.340;4.962;2024-01-15T05:54:48;0.25;;;0.00;;
36221;SDS011;22266;52.340;4.962;2024-01-15T05:57:15;0.00;;;0.00;;
36221;SDS011;22266;52.340;4.962;2024-01-15T05:59:42;0.00;;;0.00;;
36221;SDS011;22266;52.340;4.962;2024-01-15T06:02:10;0.00;;;0.00;;
36221;SDS011;22266;52.340;4.962;2024-01-15T06:04:37;0.00;;;0.00;;
36221;SDS011;22266;52.340;4.962;2024-01-15T06:07:04;1.50;;;0.50;;
36221;SDS011;22266;52.340;4.962;2024-01-15T06:09:30;0.00;;;0.00;;
36221;SDS011;22266;52.340;4.962;2024-01-15T06:11:59;1.00;;;1.00;;
36221;SDS011;22266;52.340;4.962;2024-01-15T06:14:25;0.00;;;0.00;;
36221;SDS011;22266;52.340;4.962;2024-01-15T06:16:52;0.00;;;0.00;;
36221;SDS011;22266;52.340;4.962;2024-01-15T06:19:19;0.00;;;0.00;;
36221;SDS011;22266;52.340;4.962;2024-01-15T06:21:46;0.00;;;0.00;;
36221;SDS011;22266;52.340;4.962;2024-01-15T06:24:12;0.00;;;0.00;;
36221;SDS011;22266;52.340;4.962;2024-01-15T06:26:40;0.00;;;0.00;;
36221;SDS011;22266;52.340;4.962;2024-01-15T06:29:06;0.00;;;0.00;;
36221;SDS011;22266;52.340;4.962;2024-01-15T06:31:34;0.00;;;0.00;;
36221;SDS011;22266;52.340;4.962;2024-01-15T06:34:01;0.00;;;0.00;;
36221;SDS011;22266;52.340;4.962;2024-01-15T06:36:28;0.00;;;0.00;;
36221;SDS011;22266;52.340;4.962;2024-01-15T06:38:54;1.75;;;1.75;;
36221;SDS011;22266;52.340;4.962;2024-01-15T06:41:22;0.00;;;0.00;;
36221;SDS011;22266;52.340;4.962;2024-01-15T06:43:49;0.00;;;0.00;;
36221;SDS011;22266;52.340;4.962;2024-01-15T06:46:22;0.00;;;0.00;;
36221;SDS011;22266;52.340;4.962;2024-01-15T06:48:49;0.00;;;0.00;;
36221;SDS011;22266;52.340;4.962;2024-01-15T06:51:16;0.00;;;0.00;;
36221;SDS011;22266;52.340;4.962;2024-01-15T06:53:43;0.00;;;0.00;;
36221;SDS011;22266;52.340;4.962;2024-01-15T06:56:10;0.00;;;0.00;;
36221;SDS011;22266;52.340;4.962;2024-01-15T06:58:36;0.00;;;0.00;;
36221;SDS011;22266;52.340;4.962;2024-01-15T07:01:03;0.00;;;0.00;;
36221;SDS011;22266;52.340;4.962;2024-01-15T07:03:31;0.00;;;0.00;;
36221;SDS011;22266;52.340;4.962;2024-01-15T07:05:58;0.25;;;0.25;;
36221;SDS011;22266;52.340;4.962;2024-01-15T07:08:25;0.00;;;0.00;;
36221;SDS011;22266;52.340;4.962;2024-01-15T07:10:51;0.00;;;0.00;;
36221;SDS011;22266;52.340;4.962;2024-01-15T07:13:18;0.00;;;0.00;;
36221;SDS011;22266;52.340;4.962;2024-01-15T07:15:45;0.00;;;0.00;;
36221;SDS011;22266;52.340;4.962;2024-01-15T07:18:11;1.00;;;0.00;;
36221;SDS011;22266;52.340;4.962;2024-01-15T07:20:38;0.00;;;0.00;;
36221;SDS011;22266;52.340;4.962;2024-01-15T07:23:05;0.00;;;0.00;;
36221;SDS011;22266;52.340;4.962;2024-01-15T07:25:31;0.00;;;0.00;;
36221;SDS011;22266;52.340;4.962;2024-01-15T07:27:59;0.00;;;0.00;;
36221;SDS011;22266;52.340;4.962;2024-01-15T07:30:25;0.00;;;0.00;;
36221;SDS011;22266;52.340;4.962;2024-01-15T07:32:52;0.00;;;0.00;;
36221;SDS011;22266;52.340;4.962;2024-01-15T07:35:19;0.00;;;0.00;;
36221;SDS011;22266;52.340;4.962;2024-01-15T07:37:46;1.25;;;0.25;;
36221;SDS011;22266;52.340;4.962;2024-01-15T07:40:13;1.25;;;1.00;;
36221;SDS011;22266;52.340;4.962;2024-01-15T07:42:39;0.00;;;0.00;;
36221;SDS011;22266;52.340;4.962;2024-01-15T07:45:06;0.00;;;0.00;;
36221;SDS011;22266;52.340;4.962;2024-01-15T07:47:33;0.00;;;0.00;;
36221;SDS011;22266;52.340;4.962;2024-01-15T07:50:00;7.00;;;2.00;;
36221;SDS011;22266;52.340;4.962;2024-01-15T07:52:31;0.00;;;0.00;;
36221;SDS011;22266;52.340;4.962;2024-01-15T07:54:58;0.00;;;0.00;;
36221;SDS011;22266;52.340;4.962;2024-01-15T07:57:30;0.00;;;0.00;;
36221;SDS011;22266;52.340;4.962;2024-01-15T07:59:56;0.00;;;0.00;;
36221;SDS011;22266;52.340;4.962;2024-01-15T08:02:23;0.00;;;0.00;;
36221;SDS011;22266;52.340;4.962;2024-01-15T08:04:50;0.00;;;0.00;;
36221;SDS011;22266;52.340;4.962;2024-01-15T08:07:17;14.00;;;10.25;;
36221;SDS011;22266;52.340;4.962;2024-01-15T08:09:44;0.00;;;0.00;;
36221;SDS011;22266;52.340;4.962;2024-01-15T08:12:13;0.25;;;0.00;;
36221;SDS011;22266;52.340;4.962;2024-01-15T08:14:39;0.00;;;0.00;;
36221;SDS011;22266;52.340;4.962;2024-01-15T08:17:06;0.00;;;0.00;;
36221;SDS011;22266;52.340;4.962;2024-01-15T08:19:33;0.00;;;0.00;;
36221;SDS011;22266;52.340;4.962;2024-01-15T08:22:00;0.00;;;0.00;;
36221;SDS011;22266;52.340;4.962;2024-01-15T08:24:26;0.00;;;0.00;;
36221;SDS011;22266;52.340;4.962;2024-01-15T08:26:53;5.00;;;1.00;;
36221;SDS011;22266;52.340;4.962;2024-01-15T08:29:19;0.00;;;0.00;;
36221;SDS011;22266;52.340;4.962;2024-01-15T08:31:47;0.00;;;0.00;;
36221;SDS011;22266;52.340;4.962;2024-01-15T08:34:14;0.50;;;0.00;;
36221;SDS011;22266;52.340;4.962;2024-01-15T08:36:40;1.00;;;0.00;;
36221;SDS011;22266;52.340;4.962;2024-01-15T08:39:07;0.00;;;0.00;;
36221;SDS011;22266;52.340;4.962;2024-01-15T08:41:35;0.00;;;0.00;;
36221;SDS011;22266;52.340;4.962;2024-01-15T08:44:02;0.75;;;0.00;;
36221;SDS011;22266;52.340;4.962;2024-01-15T08:46:29;0.50;;;0.50;;
36221;SDS011;22266;52.340;4.962;2024-01-15T08:48:56;1.75;;;0.75;;
36221;SDS011;22266;52.340;4.962;2024-01-15T08:51:22;1.25;;;0.50;;
36221;SDS011;22266;52.340;4.962;2024-01-15T08:53:49;1.25;;;0.00;;
36221;SDS011;22266;52.340;4.962;2024-01-15T08:56:16;1.75;;;0.50;;
36221;SDS011;22266;52.340;4.962;2024-01-15T08:58:42;0.25;;;0.25;;
36221;SDS011;22266;52.340;4.962;2024-01-15T09:01:09;0.00;;;0.00;;
36221;SDS011;22266;52.340;4.962;2024-01-15T09:03:36;1.00;;;1.00;;
36221;SDS011;22266;52.340;4.962;2024-01-15T09:06:03;1.75;;;0.00;;
36221;SDS011;22266;52.340;4.962;2024-01-15T09:08:30;1.00;;;0.75;;
36221;SDS011;22266;52.340;4.962;2024-01-15T09:10:56;2.50;;;1.75;;
36221;SDS011;22266;52.340;4.962;2024-01-15T09:13:23;0.25;;;0.25;;
36221;SDS011;22266;52.340;4.962;2024-01-15T09:15:50;8.00;;;6.75;;
36221;SDS011;22266;52.340;4.962;2024-01-15T09:18:16;16.50;;;11.75;;
36221;SDS011;22266;52.340;4.962;2024-01-15T09:20:43;35.25;;;32.25;;
36221;SDS011;22266;52.340;4.962;2024-01-15T09:23:10;26.50;;;23.75;;
36221;SDS011;22266;52.340;4.962;2024-01-15T09:25:36;20.50;;;15.50;;
36221;SDS011;22266;52.340;4.962;2024-01-15T09:28:03;5.75;;;5.75;;
36221;SDS011;22266;52.340;4.962;2024-01-15T09:30:30;5.00;;;5.00;;
36221;SDS011;22266;52.340;4.962;2024-01-15T09:32:57;1.00;;;1.00;;
36221;SDS011;22266;52.340;4.962;2024-01-15T09:35:23;0.75;;;0.00;;
36221;SDS011;22266;52.340;4.962;2024-01-15T09:37:50;1.00;;;1.00;;
36221;SDS011;22266;52.340;4.962;2024-01-15T09:40:17;0.50;;;0.00;;
36221;SDS011;22266;52.340;4.962;2024-01-15T09:42:47;0.00;;;0.00;;
36221;SDS011;22266;52.340;4.962;2024-01-15T09:45:14;0.00;;;0.00;;
36221;SDS011;22266;52.340;4.962;2024-01-15T09:47:41;1.00;;;1.00;;
36221;SDS011;22266;52.340;4.962;2024-01-15T09:50:12;24.75;;;14.50;;
36221;SDS011;22266;52.340;4.962;2024-01-15T09:52:41;5.75;;;5.75;;
36221;SDS011;22266;52.340;4.962;2024-01-15T09:55:09;4.00;;;4.00;;
36221;SDS011;22266;52.340;4.962;2024-01-15T09:57:39;11.00;;;9.25;;
36221;SDS011;22266;52.340;4.962;2024-01-15T10:00:06;6.25;;;4.50;;
36221;SDS011;22266;52.340;4.962;2024-01-15T10:02:37;1.00;;;1.00;;
36221;SDS011;22266;52.340;4.962;2024-01-15T10:05:04;1.00;;;1.00;;
36221;SDS011;22266;52.340;4.962;2024-01-15T10:07:31;5.00;;;5.00;;
36221;SDS011;22266;52.340;4.962;2024-01-15T10:10:02;4.50;;;4.50;;
36221;SDS011;22266;52.340;4.962;2024-01-15T10:12:30;4.50;;;2.50;;
36221;SDS011;22266;52.340;4.962;2024-01-15T10:14:57;11.00;;;8.50;;
36221;SDS011;22266;52.340;4.962;2024-01-15T10:17:24;4.25;;;4.25;;
36221;SDS011;22266;52.340;4.962;2024-01-15T10:19:51;4.50;;;2.00;;
36221;SDS011;22266;52.340;4.962;2024-01-15T10:22:18;1.00;;;1.00;;
36221;SDS011;22266;52.340;4.962;2024-01-15T10:24:45;2.00;;;0.25;;
36221;SDS011;22266;52.340;4.962;2024-01-15T10:27:14;0.00;;;0.00;;
36221;SDS011;22266;52.340;4.962;2024-01-15T10:29:41;1.00;;;0.00;;
36221;SDS011;22266;52.340;4.962;2024-01-15T10:32:08;0.00;;;0.00;;
36221;SDS011;22266;52.340;4.962;2024-01-15T10:34:39;0.00;;;0.00;;
36221;SDS011;22266;52.340;4.962;2024-01-15T10:37:09;0.00;;;0.00;;
36221;SDS011;22266;52.340;4.962;2024-01-15T10:39:36;4.00;;;4.00;;
36221;SDS011;22266;52.340;4.962;2024-01-15T10:42:04;0.00;;;0.00;;
36221;SDS011;22266;52.340;4.962;2024-01-15T10:44:32;1.00;;;1.00;;
36221;SDS011;22266;52.340;4.962;2024-01-15T10:46:59;0.00;;;0.00;;
36221;SDS011;22266;52.340;4.962;2024-01-15T10:49:26;4.00;;;0.00;;
36221;SDS011;22266;52.340;4.962;2024-01-15T10:51:59;0.00;;;0.00;;
36221;SDS011;22266;52.340;4.962;2024-01-15T10:54:27;0.00;;;0.00;;
36221;SDS011;22266;52.340;4.962;2024-01-15T10:56:55;0.00;;;0.00;;
36221;SDS011;22266;52.340;4.962;2024-01-15T10:59:23;0.00;;;0.00;;
36221;SDS011;22266;52.340;4.962;2024-01-15T11:01:50;1.75;;;1.75;;
36221;SDS011;22266;52.340;4.962;2024-01-15T11:04:23;1.00;;;1.00;;
36221;SDS011;22266;52.340;4.962;2024-01-15T11:06:53;1.25;;;1.00;;
36221;SDS011;22266;52.340;4.962;2024-01-15T11:09:22;2.00;;;2.00;;
36221;SDS011;22266;52.340;4.962;2024-01-15T11:11:52;1.00;;;1.00;;
36221;SDS011;22266;52.340;4.962;2024-01-15T11:14:48;0.00;;;0.00;;
36221;SDS011;22266;52.340;4.962;2024-01-15T11:17:16;0.00;;;0.00;;
36221;SDS011;22266;52.340;4.962;2024-01-15T11:19:44;3.25;;;1.00;;
36221;SDS011;22266;52.340;4.962;2024-01-15T11:25:02;4.00;;;2.00;;
36221;SDS011;22266;52.340;4.962;2024-01-15T11:27:43;2.50;;;2.50;;
36221;SDS011;22266;52.340;4.962;2024-01-15T11:30:11;1.00;;;1.00;;
36221;SDS011;22266;52.340;4.962;2024-01-15T11:32:39;1.25;;;1.00;;
36221;SDS011;22266;52.340;4.962;2024-01-15T11:35:07;18.75;;;15.75;;
36221;SDS011;22266;52.340;4.962;2024-01-15T11:40:18;0.00;;;0.00;;
36221;SDS011;22266;52.340;4.962;2024-01-15T11:42:46;0.00;;;0.00;;
36221;SDS011;22266;52.340;4.962;2024-01-15T11:45:20;0.00;;;0.00;;
36221;SDS011;22266;52.340;4.962;2024-01-15T11:50:42;0.00;;;0.00;;
36221;SDS011;22266;52.340;4.962;2024-01-15T11:53:17;2.25;;;0.00;;
36221;SDS011;22266;52.340;4.962;2024-01-15T11:55:47;0.50;;;0.50;;
36221;SDS011;22266;52.340;4.962;2024-01-15T11:58:17;2.00;;;1.00;;
36221;SDS011;22266;52.340;4.962;2024-01-15T12:00:45;3.50;;;3.00;;
36221;SDS011;22266;52.340;4.962;2024-01-15T12:03:13;5.25;;;5.25;;
36221;SDS011;22266;52.340;4.962;2024-01-15T12:05:41;4.50;;;2.00;;
36221;SDS011;22266;52.340;4.962;2024-01-15T12:08:09;1.00;;;1.00;;
36221;SDS011;22266;52.340;4.962;2024-01-15T12:10:39;0.00;;;0.00;;
36221;SDS011;22266;52.340;4.962;2024-01-15T12:13:12;0.00;;;0.00;;
36221;SDS011;22266;52.340;4.962;2024-01-15T12:15:40;0.00;;;0.00;;
36221;SDS011;22266;52.340;4.962;2024-01-15T12:18:09;0.75;;;0.75;;
36221;SDS011;22266;52.340;4.962;2024-01-15T12:20:37;2.00;;;0.00;;
36221;SDS011;22266;52.340;4.962;2024-01-15T12:23:05;0.00;;;0.00;;
36221;SDS011;22266;52.340;4.962;2024-01-15T12:25:34;4.00;;;0.00;;
36221;SDS011;22266;52.340;4.962;2024-01-15T12:28:01;1.00;;;1.00;;
36221;SDS011;22266;52.340;4.962;2024-01-15T12:30:29;0.25;;;0.25;;
36221;SDS011;22266;52.340;4.962;2024-01-15T12:32:58;1.75;;;0.00;;
36221;SDS011;22266;52.340;4.962;2024-01-15T12:35:28;1.50;;;0.75;;
36221;SDS011;22266;52.340;4.962;2024-01-15T12:37:56;1.50;;;0.00;;
36221;SDS011;22266;52.340;4.962;2024-01-15T12:40:23;1.25;;;1.25;;
36221;SDS011;22266;52.340;4.962;2024-01-15T12:42:50;2.50;;;2.00;;
36221;SDS011;22266;52.340;4.962;2024-01-15T12:45:16;1.50;;;1.00;;
36221;SDS011;22266;52.340;4.962;2024-01-15T12:47:44;3.50;;;2.00;;
36221;SDS011;22266;52.340;4.962;2024-01-15T12:50:13;0.00;;;0.00;;
36221;SDS011;22266;52.340;4.962;2024-01-15T12:52:46;3.50;;;3.50;;
36221;SDS011;22266;52.340;4.962;2024-01-15T12:55:13;6.00;;;1.00;;
36221;SDS011;22266;52.340;4.962;2024-01-15T12:57:40;1.00;;;0.00;;
36221;SDS011;22266;52.340;4.962;2024-01-15T13:00:07;0.00;;;0.00;;
36221;SDS011;22266;52.340;4.962;2024-01-15T13:02:38;0.25;;;0.25;;
36221;SDS011;22266;52.340;4.962;2024-01-15T13:05:09;1.00;;;0.00;;
36221;SDS011;22266;52.340;4.962;2024-01-15T13:07:41;1.00;;;0.00;;
36221;SDS011;22266;52.340;4.962;2024-01-15T13:10:07;0.00;;;0.00;;
36221;SDS011;22266;52.340;4.962;2024-01-15T13:12:38;2.00;;;1.00;;
36221;SDS011;22266;52.340;4.962;2024-01-15T13:15:06;0.25;;;0.25;;
36221;SDS011;22266;52.340;4.962;2024-01-15T13:17:39;1.75;;;1.75;;
36221;SDS011;22266;52.340;4.962;2024-01-15T13:20:06;1.00;;;1.00;;
36221;SDS011;22266;52.340;4.962;2024-01-15T13:22:33;2.50;;;2.50;;
36221;SDS011;22266;52.340;4.962;2024-01-15T13:25:00;1.25;;;1.25;;
36221;SDS011;22266;52.340;4.962;2024-01-15T13:27:27;1.25;;;1.00;;
36221;SDS011;22266;52.340;4.962;2024-01-15T13:29:55;0.00;;;0.00;;
36221;SDS011;22266;52.340;4.962;2024-01-15T13:32:24;0.50;;;0.50;;
36221;SDS011;22266;52.340;4.962;2024-01-15T13:34:57;8.25;;;2.00;;
36221;SDS011;22266;52.340;4.962;2024-01-15T13:37:24;1.75;;;1.75;;
36221;SDS011;22266;52.340;4.962;2024-01-15T13:39:51;11.50;;;9.75;;
36221;SDS011;22266;52.340;4.962;2024-01-15T13:42:19;7.25;;;7.00;;
36221;SDS011;22266;52.340;4.962;2024-01-15T13:44:50;1.00;;;1.00;;
36221;SDS011;22266;52.340;4.962;2024-01-15T13:47:17;0.00;;;0.00;;
36221;SDS011;22266;52.340;4.962;2024-01-15T13:49:43;1.50;;;1.50;;
36221;SDS011;22266;52.340;4.962;2024-01-15T13:52:10;7.00;;;1.00;;
36221;SDS011;22266;52.340;4.962;2024-01-15T13:54:37;0.75;;;0.75;;
36221;SDS011;22266;52.340;4.962;2024-01-15T13:57:15;7.25;;;4.75;;
36221;SDS011;22266;52.340;4.962;2024-01-15T13:59:44;4.00;;;1.75;;
36221;SDS011;22266;52.340;4.962;2024-01-15T14:02:11;1.50;;;1.00;;
36221;SDS011;22266;52.340;4.962;2024-01-15T14:04:40;2.00;;;2.00;;
36221;SDS011;22266;52.340;4.962;2024-01-15T14:07:07;1.50;;;1.00;;
36221;SDS011;22266;52.340;4.962;2024-01-15T14:09:34;0.75;;;0.75;;
36221;SDS011;22266;52.340;4.962;2024-01-15T14:12:01;1.00;;;1.00;;
36221;SDS011;22266;52.340;4.962;2024-01-15T14:14:27;1.00;;;1.00;;
36221;SDS011;22266;52.340;4.962;2024-01-15T14:16:54;2.00;;;0.25;;
36221;SDS011;22266;52.340;4.962;2024-01-15T14:19:20;0.00;;;0.00;;
36221;SDS011;22266;52.340;4.962;2024-01-15T14:21:48;2.00;;;2.00;;
36221;SDS011;22266;52.340;4.962;2024-01-15T14:24:15;0.25;;;0.00;;
36221;SDS011;22266;52.340;4.962;2024-01-15T14:26:43;0.75;;;0.75;;
36221;SDS011;22266;52.340;4.962;2024-01-15T14:29:10;0.00;;;0.00;;
36221;SDS011;22266;52.340;4.962;2024-01-15T14:31:36;0.75;;;0.75;;
36221;SDS011;22266;52.340;4.962;2024-01-15T14:34:03;0.00;;;0.00;;
36221;SDS011;22266;52.340;4.962;2024-01-15T14:36:30;1.25;;;1.00;;
36221;SDS011;22266;52.340;4.962;2024-01-15T14:38:56;0.25;;;0.00;;
36221;SDS011;22266;52.340;4.962;2024-01-15T14:41:24;3.50;;;0.00;;
36221;SDS011;22266;52.340;4.962;2024-01-15T14:43:50;0.00;;;0.00;;
36221;SDS011;22266;52.340;4.962;2024-01-15T14:46:17;0.00;;;0.00;;
36221;SDS011;22266;52.340;4.962;2024-01-15T14:48:43;0.25;;;0.25;;
36221;SDS011;22266;52.340;4.962;2024-01-15T14:51:11;4.00;;;1.00;;
36221;SDS011;22266;52.340;4.962;2024-01-15T14:53:38;1.00;;;1.00;;
36221;SDS011;22266;52.340;4.962;2024-01-15T14:56:05;0.25;;;0.25;;
36221;SDS011;22266;52.340;4.962;2024-01-15T14:58:32;2.00;;;0.00;;